createdAt,value
2018-12-15T00:02:19.523Z,-0.04
2018-12-15T00:04:53.953Z,0.00
2018-12-15T00:07:35.685Z,-0.02
2018-12-15T00:10:09.408Z,0.03
2018-12-15T00:12:50.920Z,0.02
2018-12-15T00:15:26.402Z,0.02
2018-12-15T00:17:57.026Z,-0.04
2018-12-15T00:20:31.320Z,-0.04
2018-12-15T00:23:06.668Z,-0.01
2018-12-15T00:25:48.216Z,-0.10
2018-12-15T00:28:30.140Z,-0.16
2018-12-15T00:34:10.823Z,-0.11
2018-12-15T00:36:43.957Z,-0.13
2018-12-15T00:39:17.089Z,-0.11
2018-12-15T00:44:33.112Z,-0.09
2018-12-15T00:50:00.712Z,-0.13
2018-12-15T00:52:42.596Z,-0.13
2018-12-15T00:55:30.907Z,-0.08
2018-12-15T00:58:12.138Z,-0.09
2018-12-15T01:00:53.323Z,-0.13
2018-12-15T01:03:35.161Z,-0.14
2018-12-15T01:06:25.556Z,-0.15
2018-12-15T01:08:58.282Z,-0.20
2018-12-15T01:11:40.392Z,-0.16
2018-12-15T01:14:11.447Z,-0.22
2018-12-15T01:16:53.047Z,-0.16
2018-12-15T01:19:26.328Z,-0.15
2018-12-15T01:22:08.304Z,-0.14
2018-12-15T01:24:50.051Z,-0.19
2018-12-15T01:27:31.936Z,-0.22
2018-12-15T01:30:05.427Z,-0.24
2018-12-15T01:32:46.998Z,-0.26
2018-12-15T01:35:28.900Z,-0.27
2018-12-15T01:38:10.917Z,-0.25
2018-12-15T01:40:57.833Z,-0.31
2018-12-15T01:43:46.749Z,-0.33
2018-12-15T01:46:38.167Z,-0.32
2018-12-15T01:49:13.808Z,-0.34
2018-12-15T01:51:55.188Z,-0.35
2018-12-15T01:54:37.091Z,-0.36
2018-12-15T01:57:19.103Z,-0.33
2018-12-15T01:59:52.201Z,-0.32
2018-12-15T02:02:34.080Z,-0.33
2018-12-15T02:05:05.842Z,-0.34
2018-12-15T02:07:47.800Z,-0.36
2018-12-15T02:10:40.124Z,-0.35
2018-12-15T02:13:10.652Z,-0.33
2018-12-15T02:15:46.508Z,-0.29
2018-12-15T02:18:21.224Z,-0.31
2018-12-15T02:21:02.660Z,-0.35
2018-12-15T02:23:33.721Z,-0.33
2018-12-15T02:26:15.659Z,-0.30
2018-12-15T02:28:48.896Z,-0.41
2018-12-15T02:31:24.595Z,-0.41
2018-12-15T02:33:55.160Z,-0.49
2018-12-15T02:36:37.164Z,-0.43
2018-12-15T02:39:10.428Z,-0.38
2018-12-15T02:41:52.482Z,-0.33
2018-12-15T02:44:34.232Z,-0.41
2018-12-15T02:47:16.571Z,-0.49
2018-12-15T02:49:52.003Z,-0.50
2018-12-15T02:52:33.565Z,-0.47
2018-12-15T02:55:15.392Z,-0.47
2018-12-15T02:57:47.763Z,-0.53
2018-12-15T03:00:23.409Z,-0.56
2018-12-15T03:03:04.863Z,-0.55
2018-12-15T03:05:45.985Z,-0.56
2018-12-15T03:08:27.829Z,-0.55
2018-12-15T03:11:10.857Z,-0.50
2018-12-15T03:13:52.891Z,-0.51
2018-12-15T03:16:34.853Z,-0.56
2018-12-15T03:19:12.561Z,-0.60
2018-12-15T03:21:53.611Z,-0.55
2018-12-15T03:24:35.687Z,-0.60
2018-12-15T03:27:11.223Z,-0.66
2018-12-15T03:29:44.023Z,-0.63
2018-12-15T03:32:25.767Z,-0.60
2018-12-15T03:34:56.828Z,-0.63
2018-12-15T03:37:38.693Z,-0.61
2018-12-15T03:40:12.024Z,-0.69
2018-12-15T03:43:04.983Z,-0.72
2018-12-15T03:45:46.581Z,-0.71
2018-12-15T03:48:19.012Z,-0.74
2018-12-15T03:51:04.884Z,-0.71
2018-12-15T03:53:46.833Z,-0.66
2018-12-15T03:56:28.062Z,-0.70
2018-12-15T03:59:01.014Z,-0.71
2018-12-15T04:01:43.048Z,-0.78
2018-12-15T04:04:25.082Z,-0.72
2018-12-15T04:07:06.657Z,-0.66
2018-12-15T04:09:42.057Z,-0.71
2018-12-15T04:12:23.593Z,-0.72
2018-12-15T04:15:06.425Z,-0.70
2018-12-15T04:17:47.505Z,-0.66
2018-12-15T04:20:23.011Z,-0.67
2018-12-15T04:23:04.388Z,-0.71
2018-12-15T04:25:39.113Z,-0.75
2018-12-15T04:28:11.764Z,-0.64
2018-12-15T04:30:53.635Z,-0.74
2018-12-15T04:33:35.479Z,-0.69
2018-12-15T04:36:17.873Z,-0.61
2018-12-15T04:38:50.541Z,-0.71
2018-12-15T04:41:32.344Z,-0.67
2018-12-15T04:44:14.455Z,-0.76
2018-12-15T04:46:56.870Z,-0.73
2018-12-15T04:49:38.427Z,-0.68
2018-12-15T04:52:20.492Z,-0.70
2018-12-15T04:55:02.663Z,-0.63
2018-12-15T04:57:49.384Z,-0.70
2018-12-15T05:00:23.035Z,-0.71
2018-12-15T05:03:04.340Z,-0.68
2018-12-15T05:05:46.446Z,-0.73
2018-12-15T05:08:28.227Z,-0.71
2018-12-15T05:11:10.025Z,-0.73
2018-12-15T05:13:51.921Z,-0.73
2018-12-15T05:16:41.106Z,-0.74
2018-12-15T05:19:13.746Z,-0.71
2018-12-15T05:21:55.453Z,-0.72
2018-12-15T05:24:37.506Z,-0.74
2018-12-15T05:27:10.349Z,-0.69
2018-12-15T05:29:52.755Z,-0.71
2018-12-15T05:32:25.597Z,-0.69
2018-12-15T05:35:07.326Z,-0.70
2018-12-15T05:37:49.236Z,-0.72
2018-12-15T05:40:22.291Z,-0.71
2018-12-15T05:43:03.357Z,-0.72
2018-12-15T05:45:45.220Z,-0.67
2018-12-15T05:48:27.299Z,-0.65
2018-12-15T05:51:09.045Z,-0.73
2018-12-15T05:53:51.007Z,-0.67
2018-12-15T05:56:32.892Z,-0.72
2018-12-15T05:59:14.095Z,-0.60
2018-12-15T06:01:49.715Z,-0.58
2018-12-15T06:04:20.621Z,-0.61
2018-12-15T06:07:02.356Z,-0.63
2018-12-15T06:09:35.632Z,-0.63
2018-12-15T06:12:17.395Z,-0.61
2018-12-15T06:14:54.967Z,-0.61
2018-12-15T06:17:36.256Z,-0.69
2018-12-15T06:20:08.768Z,-0.69
2018-12-15T06:22:50.411Z,-0.70
2018-12-15T06:25:32.362Z,-0.65
2018-12-15T06:28:15.473Z,-0.67
2018-12-15T06:30:56.818Z,-0.69
2018-12-15T06:33:38.559Z,-0.68
2018-12-15T06:36:20.472Z,-0.69
2018-12-15T06:38:53.412Z,-0.70
2018-12-15T06:41:35.408Z,-0.70
2018-12-15T06:44:17.298Z,-0.69
2018-12-15T06:46:52.828Z,-0.66
2018-12-15T06:49:28.803Z,-0.73
2018-12-15T06:52:10.245Z,-0.63
2018-12-15T06:54:52.031Z,-0.65
2018-12-15T06:57:34.104Z,-0.65
2018-12-15T07:00:07.631Z,-0.71
2018-12-15T07:02:49.309Z,-0.70
2018-12-15T07:05:20.355Z,-0.64
2018-12-15T07:08:02.469Z,-0.60
2018-12-15T07:10:36.717Z,-0.55
2018-12-15T07:13:18.708Z,-0.59
2018-12-15T07:16:00.712Z,-0.57
2018-12-15T07:18:33.872Z,-0.52
2018-12-15T07:21:15.765Z,-0.51
2018-12-15T07:23:57.589Z,-0.46
2018-12-15T07:26:33.135Z,-0.51
2018-12-15T07:29:06.232Z,-0.45
2018-12-15T07:31:38.187Z,-0.39
2018-12-15T07:34:09.381Z,-0.40
2018-12-15T07:36:39.932Z,-0.35
2018-12-15T07:39:12.991Z,-0.33
2018-12-15T07:41:54.763Z,-0.32
2018-12-15T07:44:36.911Z,-0.39
2018-12-15T07:47:18.867Z,-0.35
2018-12-15T07:49:52.182Z,-0.29
2018-12-15T07:52:23.417Z,-0.22
2018-12-15T07:55:05.499Z,-0.26
2018-12-15T07:57:47.567Z,-0.31
2018-12-15T08:00:20.816Z,-0.26
2018-12-15T08:02:55.517Z,-0.20
2018-12-15T08:05:35.433Z,-0.12
2018-12-15T08:08:13.351Z,-0.09
2018-12-15T08:10:53.333Z,-0.16
2018-12-15T08:13:35.445Z,0.00
2018-12-15T08:16:11.034Z,0.08
2018-12-15T08:18:43.821Z,0.05
2018-12-15T08:21:26.351Z,0.01
2018-12-15T08:24:08.371Z,-0.04
2018-12-15T08:26:50.604Z,0.01
2018-12-15T08:29:25.051Z,0.00
2018-12-15T08:32:06.711Z,-0.01
2018-12-15T08:37:53.292Z,0.14
2018-12-15T08:40:26.395Z,0.19
2018-12-15T08:43:08.261Z,0.30
2018-12-15T08:45:39.512Z,0.43
2018-12-15T08:48:21.268Z,0.38
2018-12-15T08:51:04.056Z,0.55
2018-12-15T08:53:36.478Z,0.45
2018-12-15T08:56:23.656Z,0.55
2018-12-15T08:58:54.795Z,0.45
2018-12-15T09:01:30.384Z,0.60
2018-12-15T09:04:11.718Z,0.65
2018-12-15T09:06:53.495Z,0.74
2018-12-15T09:09:25.863Z,0.61
2018-12-15T09:12:06.965Z,0.62
2018-12-15T09:14:48.688Z,0.46
2018-12-15T09:17:25.759Z,0.70
2018-12-15T09:19:58.904Z,0.93
2018-12-15T09:22:40.745Z,0.94
2018-12-15T09:25:22.636Z,0.67
2018-12-15T09:28:04.607Z,0.68
2018-12-15T09:30:39.118Z,0.91
2018-12-15T09:33:20.797Z,1.11
2018-12-15T09:36:02.975Z,1.12
2018-12-15T09:38:36.114Z,0.90
2018-12-15T09:41:07.316Z,1.04
2018-12-15T09:43:38.708Z,0.91
2018-12-15T09:46:14.486Z,1.00
2018-12-15T09:48:45.632Z,1.00
2018-12-15T09:51:16.544Z,1.07
2018-12-15T09:53:47.374Z,1.09
2018-12-15T09:56:19.072Z,1.12
2018-12-15T09:58:53.110Z,1.11
2018-12-15T10:04:09.505Z,0.93
2018-12-15T10:06:51.635Z,0.93
2018-12-15T10:09:34.005Z,1.25
2018-12-15T10:12:21.090Z,1.06
2018-12-15T10:15:05.047Z,1.30
2018-12-15T10:17:47.936Z,1.29
2018-12-15T10:20:21.227Z,1.25
2018-12-15T10:23:02.460Z,1.26
2018-12-15T10:25:44.589Z,1.34
2018-12-15T10:28:26.284Z,1.41
2018-12-15T10:31:13.302Z,1.51
2018-12-15T10:33:52.686Z,1.65
2018-12-15T10:36:34.587Z,1.41
2018-12-15T10:39:09.760Z,1.16
2018-12-15T10:41:41.923Z,1.48
2018-12-15T10:44:17.267Z,1.14
2018-12-15T10:46:58.814Z,0.87
2018-12-15T10:49:32.024Z,1.06
2018-12-15T10:52:13.926Z,1.64
2018-12-15T10:54:58.726Z,1.66
2018-12-15T10:57:40.709Z,1.64
2018-12-15T11:00:21.592Z,1.46
2018-12-15T11:02:54.498Z,1.10
2018-12-15T11:05:36.049Z,1.23
2018-12-15T11:08:07.316Z,1.23
2018-12-15T11:10:49.298Z,1.30
2018-12-15T11:13:20.663Z,1.45
2018-12-15T11:16:02.529Z,1.56
2018-12-15T11:18:35.727Z,1.51
2018-12-15T11:21:07.149Z,1.70
2018-12-15T11:23:48.693Z,1.20
2018-12-15T11:26:30.437Z,1.35
2018-12-15T11:29:05.991Z,1.43
2018-12-15T11:31:47.263Z,1.84
2018-12-15T11:34:29.119Z,1.32
2018-12-15T11:37:11.113Z,1.35
2018-12-15T11:39:46.899Z,1.38
2018-12-15T11:42:33.036Z,1.57
2018-12-15T11:45:14.857Z,1.73
2018-12-15T11:47:45.891Z,1.36
2018-12-15T11:50:19.055Z,1.16
2018-12-15T11:53:05.848Z,1.63
2018-12-15T11:55:42.962Z,1.99
2018-12-15T11:58:29.938Z,1.75
2018-12-15T12:01:11.800Z,1.41
2018-12-15T12:03:53.765Z,1.60
2018-12-15T12:06:35.551Z,1.77
2018-12-15T12:09:09.201Z,1.50
2018-12-15T12:11:50.660Z,1.76
2018-12-15T12:14:32.404Z,1.88
2018-12-15T12:17:14.337Z,1.90
2018-12-15T12:19:50.316Z,2.09
2018-12-15T12:22:20.659Z,2.47
2018-12-15T12:25:02.247Z,2.18
2018-12-15T12:27:44.297Z,1.66
2018-12-15T12:30:17.377Z,1.57
2018-12-15T12:32:50.555Z,2.08
2018-12-15T12:35:36.447Z,2.14
2018-12-15T12:38:07.888Z,1.69
2018-12-15T12:40:40.644Z,2.04
2018-12-15T12:43:22.484Z,1.79
2018-12-15T12:46:04.564Z,2.11
2018-12-15T12:48:37.599Z,2.16
2018-12-15T12:51:08.829Z,2.27
2018-12-15T12:53:50.716Z,2.09
2018-12-15T12:56:32.535Z,2.08
2018-12-15T12:59:14.354Z,2.18
2018-12-15T13:01:49.779Z,2.14
2018-12-15T13:04:20.358Z,1.73
2018-12-15T13:07:03.373Z,1.60
2018-12-15T13:09:36.701Z,1.67
2018-12-15T13:12:18.486Z,1.71
2018-12-15T13:15:00.472Z,1.62
2018-12-15T13:17:42.405Z,1.57
2018-12-15T13:20:15.072Z,1.07
2018-12-15T13:22:56.592Z,1.35
2018-12-15T13:25:38.384Z,1.35
2018-12-15T13:28:26.143Z,1.05
2018-12-15T13:31:08.039Z,1.01
2018-12-15T13:33:49.116Z,0.88
2018-12-15T13:36:45.030Z,0.99
2018-12-15T13:39:18.279Z,1.01
2018-12-15T13:42:00.219Z,1.07
2018-12-15T13:44:46.951Z,0.83
2018-12-15T13:47:29.019Z,0.66
2018-12-15T13:50:02.007Z,0.50
2018-12-15T13:52:45.063Z,0.48
2018-12-15T13:55:26.963Z,0.43
2018-12-15T13:58:08.915Z,0.33
2018-12-15T14:00:42.291Z,0.29
2018-12-15T14:03:13.372Z,0.34
2018-12-15T14:06:00.543Z,0.36
2018-12-15T14:08:33.690Z,0.33
2018-12-15T14:11:15.467Z,0.32
2018-12-15T14:14:02.564Z,0.30
2018-12-15T14:16:35.620Z,0.27
2018-12-15T14:19:08.976Z,0.25
2018-12-15T14:21:50.791Z,0.28
2018-12-15T14:24:30.514Z,0.27
2018-12-15T14:27:11.963Z,0.27
2018-12-15T14:29:57.964Z,0.23
2018-12-15T14:32:40.001Z,0.23
2018-12-15T14:35:32.427Z,0.22
2018-12-15T14:38:13.920Z,0.13
2018-12-15T14:40:48.159Z,0.05
2018-12-15T14:43:34.131Z,-0.03
2018-12-15T14:46:16.405Z,-0.06
2018-12-15T14:48:49.403Z,-0.03
2018-12-15T14:51:26.021Z,-0.10
2018-12-15T14:54:07.614Z,-0.12
2018-12-15T14:56:49.641Z,-0.22
2018-12-15T14:59:23.055Z,-0.29
2018-12-15T15:02:03.192Z,-0.36
2018-12-15T15:04:35.757Z,-0.47
2018-12-15T15:07:17.821Z,-0.57
2018-12-15T15:09:53.416Z,-0.65
2018-12-15T15:12:35.029Z,-0.72
2018-12-15T15:15:18.775Z,-0.82
2018-12-15T15:18:00.700Z,-0.98
2018-12-15T15:20:33.988Z,-1.00
2018-12-15T15:23:15.820Z,-1.14
2018-12-15T15:25:53.140Z,-1.24
2018-12-15T15:28:40.193Z,-1.40
2018-12-15T15:31:21.964Z,-1.49
2018-12-15T15:34:04.466Z,-1.58
2018-12-15T15:36:45.993Z,-1.70
2018-12-15T15:39:19.324Z,-1.79
2018-12-15T15:42:02.285Z,-1.84
2018-12-15T15:44:35.279Z,-1.83
2018-12-15T15:47:17.391Z,-1.85
2018-12-15T15:49:50.826Z,-1.97
2018-12-15T15:52:38.172Z,-2.00
2018-12-15T15:58:20.722Z,-2.14
2018-12-15T16:00:57.031Z,-2.21
2018-12-15T16:03:33.139Z,-2.17
2018-12-15T16:09:00.913Z,-2.36
2018-12-15T16:11:38.415Z,-2.42
2018-12-15T16:14:21.552Z,-2.50
2018-12-15T16:16:54.143Z,-2.52
2018-12-15T16:19:27.420Z,-2.51
2018-12-15T16:25:09.132Z,-2.61
2018-12-15T16:27:50.881Z,-2.71
2018-12-15T16:30:24.196Z,-2.80
2018-12-15T16:33:11.167Z,-2.79
2018-12-15T16:35:48.129Z,-2.83
2018-12-15T16:38:29.748Z,-2.87
2018-12-15T16:41:11.840Z,-2.95
2018-12-15T16:43:53.788Z,-2.99
2018-12-15T16:46:25.452Z,-3.03
2018-12-15T16:48:58.196Z,-3.08
2018-12-15T16:51:39.763Z,-3.11
2018-12-15T16:54:15.716Z,-3.15
2018-12-15T16:56:56.915Z,-3.21
2018-12-15T16:59:38.924Z,-3.24
2018-12-15T17:02:21.099Z,-3.27
2018-12-15T17:05:03.344Z,-3.27
2018-12-15T17:07:45.283Z,-3.29
2018-12-15T17:10:18.346Z,-3.23
2018-12-15T17:12:59.815Z,-3.27
2018-12-15T17:15:36.322Z,-3.29
2018-12-15T17:18:18.094Z,-3.30
2018-12-15T17:20:59.920Z,-3.34
2018-12-15T17:23:31.247Z,-3.33
2018-12-15T17:26:13.256Z,-3.38
2018-12-15T17:28:55.120Z,-3.33
2018-12-15T17:31:37.006Z,-3.38
2018-12-15T17:34:18.965Z,-3.39
2018-12-15T17:37:07.141Z,-3.50
2018-12-15T17:39:39.817Z,-3.54
2018-12-15T17:42:21.782Z,-3.54
2018-12-15T17:45:03.816Z,-3.57
2018-12-15T17:47:46.672Z,-3.69
2018-12-15T17:50:28.206Z,-3.71
2018-12-15T17:53:10.132Z,-3.80
2018-12-15T17:55:51.920Z,-3.83
2018-12-15T17:58:27.349Z,-3.80
2018-12-15T18:01:08.824Z,-3.84
2018-12-15T18:03:44.347Z,-3.78
2018-12-15T18:06:23.771Z,-3.76
2018-12-15T18:08:56.544Z,-3.77
2018-12-15T18:11:38.388Z,-3.86
2018-12-15T18:14:11.507Z,-3.82
2018-12-15T18:16:52.729Z,-3.82
2018-12-15T18:19:27.920Z,-3.84
2018-12-15T18:22:09.995Z,-3.73
2018-12-15T18:24:52.048Z,-3.75
2018-12-15T18:27:33.163Z,-3.80
2018-12-15T18:30:10.928Z,-4.00
2018-12-15T18:32:53.589Z,-4.01
2018-12-15T18:35:35.276Z,-3.97
2018-12-15T18:38:17.300Z,-3.94
2018-12-15T18:40:58.394Z,-3.90
2018-12-15T18:43:40.624Z,-3.86
2018-12-15T18:46:11.914Z,-3.90
2018-12-15T18:48:42.726Z,-3.98
2018-12-15T18:51:16.441Z,-4.05
2018-12-15T18:53:53.709Z,-4.06
2018-12-15T18:56:31.161Z,-4.01
2018-12-15T18:59:04.620Z,-4.13
2018-12-15T19:01:46.508Z,-4.16
2018-12-15T19:07:28.616Z,-4.04
2018-12-15T19:10:12.684Z,-4.02
2018-12-15T19:12:44.122Z,-3.98
2018-12-15T19:15:19.536Z,-3.84
2018-12-15T19:18:01.177Z,-3.93
2018-12-15T19:20:34.431Z,-3.92
2018-12-15T19:23:16.426Z,-3.86
2018-12-15T19:25:59.136Z,-3.80
2018-12-15T19:28:41.471Z,-3.85
2018-12-15T19:31:14.635Z,-3.80
2018-12-15T19:33:56.636Z,-3.73
2018-12-15T19:36:29.408Z,-3.82
2018-12-15T19:39:02.959Z,-3.82
2018-12-15T19:41:35.242Z,-3.71
2018-12-15T19:44:08.237Z,-3.65
2018-12-15T19:46:50.072Z,-3.63
2018-12-15T19:49:29.260Z,-3.58
2018-12-15T19:52:11.408Z,-3.59
2018-12-15T19:54:44.680Z,-3.71
2018-12-15T19:57:30.599Z,-3.75
2018-12-15T20:00:04.552Z,-3.75
2018-12-15T20:02:45.984Z,-3.79
2018-12-15T20:05:19.169Z,-3.83
2018-12-15T20:08:01.222Z,-3.88
2018-12-15T20:10:34.472Z,-3.92
2018-12-15T20:13:16.626Z,-4.05
2018-12-15T20:15:57.553Z,-4.12
2018-12-15T20:18:38.633Z,-4.16
2018-12-15T20:21:21.691Z,-4.24
2018-12-15T20:23:56.392Z,-4.31
2018-12-15T20:26:27.209Z,-4.38
2018-12-15T20:29:00.043Z,-4.42
2018-12-15T20:31:41.167Z,-4.45
2018-12-15T20:34:23.129Z,-4.48
2018-12-15T20:37:05.130Z,-4.48
2018-12-15T20:39:42.874Z,-4.48
2018-12-15T20:42:24.372Z,-4.45
2018-12-15T20:44:56.741Z,-4.51
2018-12-15T20:47:38.413Z,-4.50
2018-12-15T20:50:10.895Z,-4.52
2018-12-15T20:52:52.596Z,-4.49
2018-12-15T20:55:34.548Z,-4.51
2018-12-15T20:58:16.607Z,-4.53
2018-12-15T21:00:49.927Z,-4.54
2018-12-15T21:03:32.039Z,-4.54
2018-12-15T21:06:14.020Z,-4.55
2018-12-15T21:08:55.946Z,-4.60
2018-12-15T21:11:37.901Z,-4.56
2018-12-15T21:14:20.656Z,-4.66
2018-12-15T21:17:02.556Z,-4.58
2018-12-15T21:19:47.835Z,-4.48
2018-12-15T21:22:28.481Z,-4.45
2018-12-15T21:25:06.968Z,-4.40
2018-12-15T21:27:48.595Z,-4.38
2018-12-15T21:30:21.763Z,-4.29
2018-12-15T21:32:55.098Z,-4.20
2018-12-15T21:35:38.867Z,-4.12
2018-12-15T21:38:29.090Z,-4.06
2018-12-15T21:41:10.416Z,-3.99
2018-12-15T21:43:47.949Z,-3.95
2018-12-15T21:46:29.282Z,-3.94
2018-12-15T21:49:11.059Z,-3.89
2018-12-15T21:51:56.388Z,-3.81
2018-12-15T21:54:28.675Z,-3.75
2018-12-15T21:57:17.058Z,-3.76
2018-12-15T21:59:58.499Z,-3.74
2018-12-15T22:02:40.316Z,-3.74
2018-12-15T22:05:22.006Z,-3.74
2018-12-15T22:08:04.067Z,-3.75
2018-12-15T22:10:37.071Z,-3.72
2018-12-15T22:13:19.099Z,-3.67
2018-12-15T22:15:54.761Z,-3.63
2018-12-15T22:18:35.926Z,-3.67
2018-12-15T22:21:17.891Z,-3.67
2018-12-15T22:23:59.843Z,-3.64
2018-12-15T22:26:41.866Z,-3.66
2018-12-15T22:29:14.430Z,-3.62
2018-12-15T22:31:56.103Z,-3.63
2018-12-15T22:34:38.012Z,-3.59
2018-12-15T22:37:19.936Z,-3.48
2018-12-15T22:39:53.251Z,-3.44
2018-12-15T22:42:35.233Z,-3.41
2018-12-15T22:45:17.360Z,-3.41
2018-12-15T22:47:58.866Z,-3.36
2018-12-15T22:50:31.885Z,-3.40
2018-12-15T22:53:13.855Z,-3.35
2018-12-15T22:55:47.096Z,-3.26
2018-12-15T22:58:28.852Z,-3.17
2018-12-15T23:01:11.841Z,-3.15
2018-12-15T23:03:44.954Z,-3.16
2018-12-15T23:06:26.712Z,-3.12
2018-12-15T23:08:59.928Z,-3.07
2018-12-15T23:11:41.719Z,-3.04
2018-12-15T23:14:23.703Z,-3.02
2018-12-15T23:17:07.759Z,-2.97
2018-12-15T23:19:40.802Z,-2.91
2018-12-15T23:22:27.474Z,-2.89
2018-12-15T23:25:09.075Z,-2.87
2018-12-15T23:27:50.784Z,-2.89
2018-12-15T23:30:23.947Z,-2.91
2018-12-15T23:33:05.719Z,-3.02
2018-12-15T23:35:47.722Z,-3.03
2018-12-15T23:38:29.153Z,-2.98
2018-12-15T23:41:10.907Z,-2.95
2018-12-15T23:43:52.980Z,-2.92
2018-12-15T23:46:28.609Z,-2.95
2018-12-15T23:49:01.167Z,-3.03
2018-12-15T23:54:36.418Z,-2.85
2018-12-15T23:57:17.754Z,-2.73
2018-12-15T23:59:51.028Z,-2.67
